Etusivu
METAR-TAF:

METAR-TAF

Lentoasemat :

Brooks County Airport

Falfurrias, Texas, Yhdysvallat

Leveyspiiri: 27-12-24N, Pituuspiiri: 098-07-16W, korkeus merenpinnasta: 34 m

Tämänhetkinen sää

Tämä raportti tehtiin 18 minuuttia sitten, kello 14.55 UTC
Tuuli 12 kn kaakosta puuskistuen 16 kn:hen
Lämpötila 29°C
Kosteus 70%
Ilmanpaine 1007 hPa
Näkyvyys: 11.3 km
Hajanaisia pilviä 2200 ft:n korkeudessa
Pilvistä 3000 ft:n korkeudessa

METAR: KBKS 221455Z AUTO 13012G16KT 7SM SCT022 OVC030 29/23 A2973 RMK AO1 T02920233

Aika: 10:13 (15:13 UTC)


TAF: puuttuu

Säähavainnot ja -ennusteet yli 4000 lentoasemalta (METAR- ja TAF-raportit).

Käytössä olevat sääasemat on merkitty karttaan keltaisilla ja punaisilla pisteillä.

Aseta hiiri pisteen päälle nähdäksesi sääaseman nimen.

Klikkaa sitten nähdäksesi säähavainnot ja -ennusteet.

Kartan vaihtaminen: klikkaa mustalla rastilla varustettuja vihreitä pisteitä, niin voit zoomata sisään; viivalla varustettua vihreää pistettä, niin voit zoomata ulos tai vihreitä nuolia, niin pääset viereisille kartoille.


METAR-TAF: